Time;durP1;ratioP1;P1;durP2;ratioP2;P2;SDS_P1;SDS_P2;PMS_P1;PMS_P2;Temp;Humidity;BMP_temperature;BMP_pressure;BME280_temperature;BME280_humidity;BME280_pressure;Samples;Min_cycle;Max_cycle;Signal;HPM_P1;HPM_P2
2022/04/23 00:00:34;;;;;;;31.35;16.17;;;;;;;;;;4938914;29;20164;-68
2022/04/23 00:03:01;;;;;;;43.53;15.40;;;;;;;;;;4921856;29;20167;-68
2022/04/23 00:05:28;;;;;;;30.10;14.68;;;;;;;;;;4938904;29;20051;-67
2022/04/23 00:07:54;;;;;;;37.45;17.67;;;;;;;;;;4921730;29;20032;-68
2022/04/23 00:10:22;;;;;;;30.60;15.38;;;;;;;;;;4921694;29;20098;-68
2022/04/23 00:12:48;;;;;;;21.55;14.95;;;;;;;;;;4938802;29;20071;-68
2022/04/23 00:15:14;;;;;;;22.23;14.93;;;;;;;;;;4921571;29;20118;-68
2022/04/23 00:17:43;;;;;;;25.15;13.77;;;;;;;;;;4921518;29;20038;-68
2022/04/23 00:20:12;;;;;;;26.00;13.18;;;;;;;;;;4921545;29;20043;-68
2022/04/23 00:22:38;;;;;;;23.45;12.65;;;;;;;;;;4938593;29;20027;-68
2022/04/23 00:25:05;;;;;;;21.38;12.32;;;;;;;;;;4938386;29;20032;-67
2022/04/23 00:27:30;;;;;;;23.27;11.45;;;13.60;99.90;;;;;;4938514;29;20075;-67
2022/04/23 00:29:56;;;;;;;22.95;11.85;;;13.60;99.90;;;;;;4938363;29;20352;-66
2022/04/23 00:32:22;;;;;;;24.90;12.40;;;13.60;99.90;;;;;;4921112;29;20378;-67
2022/04/23 00:34:49;;;;;;;25.20;12.07;;;13.60;99.90;;;;;;4938373;29;20031;-66
2022/04/23 00:37:14;;;;;;;17.08;12.20;;;13.70;99.90;;;;;;4938184;29;20027;-65
2022/04/23 00:39:40;;;;;;;22.20;13.27;;;13.70;99.90;;;;;;4938250;29;20024;-65
2022/04/23 00:42:09;;;;;;;24.67;14.63;;;13.70;99.90;;;;;;4937799;29;20034;-65
2022/04/23 00:44:37;;;;;;;25.85;13.95;;;13.60;99.90;;;;;;4938086;29;20098;-65
2022/04/23 00:47:04;;;;;;;23.65;13.85;;;13.60;99.90;;;;;;4938172;29;20115;-65
2022/04/23 00:49:30;;;;;;;26.25;14.00;;;13.60;99.90;;;;;;4938059;29;20039;-65
2022/04/23 00:51:56;;;;;;;22.67;14.30;;;13.60;99.90;;;;;;4938333;29;20040;-64
2022/04/23 00:54:22;;;;;;;23.95;12.80;;;13.60;99.90;;;;;;4938024;29;20035;-65
2022/04/23 00:56:48;;;;;;;22.23;14.68;;;13.50;99.90;;;;;;4920725;29;20134;-65
2022/04/23 00:59:14;;;;;;;21.17;13.65;;;13.50;99.90;;;;;;4937930;29;20499;-65
2022/04/23 01:01:42;;;;;;;29.23;14.52;;;13.50;99.90;;;;;;4937695;29;20024;-65
2022/04/23 01:04:09;;;;;;;23.63;14.25;;;13.40;99.90;;;;;;4920676;29;20083;-67
2022/04/23 01:06:36;;;;;;;29.23;16.77;;;13.20;99.90;;;;;;4920647;29;20429;-67
2022/04/23 01:09:06;;;;;;;33.10;19.63;;;;;;;;;;4937693;29;20031;-67
2022/04/23 01:11:33;;;;;;;28.63;15.38;;;;;;;;;;4920620;29;20028;-66
2022/04/23 01:14:01;;;;;;;23.17;11.50;;;;;;;;;;4937666;29;20027;-67
2022/04/23 01:16:27;;;;;;;26.17;13.07;;;;;;;;;;4937613;29;20016;-65
2022/04/23 01:18:53;;;;;;;19.08;10.88;;;;;;;;;;4937493;29;20071;-66
2022/04/23 01:21:20;;;;;;;15.43;8.15;;;;;;;;;;4937503;29;20024;-66
2022/04/23 01:23:53;;;;;;;19.77;9.73;;;;;;;;;;4937152;29;20446;-66
2022/04/23 01:26:29;;;;;;;21.80;10.32;;;;;;;;;;4937457;29;20084;-66
2022/04/23 01:28:56;;;;;;;14.20;9.07;;;13.30;99.90;;;;;;4920279;29;20032;-65
2022/04/23 01:31:22;;;;;;;22.90;10.25;;;13.30;99.90;;;;;;4936948;29;20055;-66
2022/04/23 01:33:48;;;;;;;17.45;10.30;;;13.30;99.90;;;;;;4937229;29;20048;-67
2022/04/23 01:36:15;;;;;;;21.52;10.48;;;13.30;99.90;;;;;;4920161;29;20032;-67
2022/04/23 01:38:42;;;;;;;19.90;10.82;;;13.30;99.90;;;;;;4937113;29;20036;-66
2022/04/23 01:41:08;;;;;;;21.85;11.43;;;13.30;99.90;;;;;;4919976;29;20496;-66
2022/04/23 01:43:34;;;;;;;23.40;11.65;;;13.20;99.90;;;;;;4920019;29;20032;-67
2022/04/23 01:46:00;;;;;;;24.40;13.57;;;13.10;99.90;;;;;;4937102;29;20039;-67
2022/04/23 01:48:26;;;;;;;24.85;12.52;;;13.10;99.90;;;;;;4936986;29;20468;-66
2022/04/23 01:50:53;;;;;;;23.83;12.30;;;13.00;99.90;;;;;;4936919;29;20028;-66
2022/04/23 01:53:21;;;;;;;22.95;13.82;;;12.90;99.90;;;;;;4919689;29;20032;-67
2022/04/23 01:55:46;;;;;;;29.15;14.73;;;12.90;99.90;;;;;;4936072;29;20416;-67
2022/04/23 01:58:12;;;;;;;23.45;14.43;;;12.90;99.90;;;;;;4936710;29;20036;-67
2022/04/23 02:00:39;;;;;;;23.60;14.07;;;12.90;99.90;;;;;;4936769;29;20476;-68
2022/04/23 02:03:06;;;;;;;25.60;14.55;;;12.80;99.90;;;;;;4936397;29;20472;-67
2022/04/23 02:05:31;;;;;;;25.83;15.05;;;12.80;99.90;;;;;;4936701;29;20034;-68
2022/04/23 02:07:57;;;;;;;22.38;12.73;;;12.80;99.90;;;;;;4919288;29;20397;-68
2022/04/23 02:10:23;;;;;;;21.65;11.73;;;12.90;99.90;;;;;;4919466;29;20038;-68
2022/04/23 02:12:49;;;;;;;20.48;11.80;;;12.90;99.90;;;;;;4936598;29;20102;-67
2022/04/23 02:15:16;;;;;;;20.77;10.73;;;13.00;99.90;;;;;;4936360;29;20545;-67
2022/04/23 02:17:44;;;;;;;16.70;10.23;;;12.90;99.90;;;;;;4936450;29;20035;-68
2022/04/23 02:20:15;;;;;;;15.18;9.27;;;13.00;99.90;;;;;;4936067;29;20362;-68
2022/04/23 02:22:42;;;;;;;17.75;10.48;;;13.00;99.90;;;;;;4936455;29;20038;-68
2022/04/23 02:25:09;;;;;;;18.83;10.25;;;13.00;99.90;;;;;;4936433;29;20044;-70
2022/04/23 02:27:42;;;;;;;22.08;11.23;;;12.90;99.90;;;;;;4936302;29;20095;-68
2022/04/23 02:30:09;;;;;;;16.85;10.65;;;12.90;99.90;;;;;;4936304;29;20056;-68
2022/04/23 02:32:35;;;;;;;20.02;11.00;;;12.90;99.90;;;;;;4935873;29;20051;-67
2022/04/23 02:35:01;;;;;;;20.08;11.25;;;12.80;99.90;;;;;;4936260;29;20024;-67
2022/04/23 02:37:27;;;;;;;19.35;12.15;;;12.80;99.90;;;;;;4936298;29;20099;-67
2022/04/23 02:39:53;;;;;;;19.38;12.00;;;12.80;99.90;;;;;;4936105;29;20043;-66
2022/04/23 02:42:19;;;;;;;19.45;11.93;;;12.80;99.90;;;;;;4936081;29;20039;-67
2022/04/23 02:44:45;;;;;;;22.63;12.00;;;12.80;99.90;;;;;;4936054;29;20042;-67
2022/04/23 02:47:11;;;;;;;19.40;11.55;;;12.80;99.90;;;;;;4936068;29;20040;-67
2022/04/23 02:49:37;;;;;;;19.23;12.50;;;12.80;99.90;;;;;;4936043;29;20119;-67
2022/04/23 02:52:03;;;;;;;21.55;12.02;;;12.80;99.90;;;;;;4935968;29;20159;-67
2022/04/23 02:54:29;;;;;;;21.10;12.73;;;12.80;99.90;;;;;;4936130;29;20106;-67
2022/04/23 02:56:55;;;;;;;20.23;12.32;;;12.80;99.90;;;;;;4935939;29;20107;-67
2022/04/23 02:59:21;;;;;;;21.27;11.43;;;12.80;99.90;;;;;;4935924;29;20075;-67
2022/04/23 03:01:48;;;;;;;20.58;12.13;;;12.80;99.90;;;;;;4935881;29;20440;-67
2022/04/23 03:04:15;;;;;;;19.38;11.73;;;12.80;99.90;;;;;;4935846;29;20032;-66
2022/04/23 03:06:41;;;;;;;21.40;12.50;;;12.80;99.90;;;;;;4935624;29;20035;-67
2022/04/23 03:09:06;;;;;;;20.65;13.07;;;12.80;99.90;;;;;;4935855;29;20027;-67
2022/04/23 03:11:32;;;;;;;19.73;12.30;;;12.80;99.90;;;;;;4935857;29;20358;-67
2022/04/23 03:13:59;;;;;;;18.27;11.70;;;12.80;99.90;;;;;;4935800;29;20110;-67
2022/04/23 03:16:28;;;;;;;18.23;11.77;;;12.80;99.90;;;;;;4936037;29;20031;-66
2022/04/23 03:18:56;;;;;;;24.23;13.32;;;12.80;99.90;;;;;;4935664;29;20548;-67
2022/04/23 03:21:22;;;;;;;19.27;12.95;;;12.80;99.90;;;;;;4935768;29;20031;-67
2022/04/23 03:23:48;;;;;;;21.08;13.15;;;12.80;99.90;;;;;;4935719;29;20035;-67
2022/04/23 03:26:14;;;;;;;20.75;12.15;;;12.90;99.90;;;;;;4935706;29;20043;-67
2022/04/23 03:28:40;;;;;;;18.27;12.57;;;12.90;99.90;;;;;;4918543;29;20031;-69
2022/04/23 03:31:06;;;;;;;23.10;14.25;;;12.90;99.90;;;;;;4935147;29;20059;-69
2022/04/23 03:33:32;;;;;;;22.70;13.07;;;12.80;99.90;;;;;;4935644;29;20038;-69
2022/04/23 03:35:58;;;;;;;21.95;12.82;;;12.90;99.90;;;;;;4935671;29;20040;-70
2022/04/23 03:38:25;;;;;;;24.40;12.95;;;12.80;99.90;;;;;;4918386;29;20043;-70
2022/04/23 03:40:53;;;;;;;25.95;15.82;;;12.80;99.90;;;;;;4935584;29;20027;-67
2022/04/23 03:43:20;;;;;;;21.25;13.20;;;12.70;99.90;;;;;;4935546;29;20032;-67
2022/04/23 03:45:47;;;;;;;21.30;13.98;;;12.60;99.90;;;;;;4935622;29;20059;-67
2022/04/23 03:48:14;;;;;;;26.48;14.73;;;12.50;99.90;;;;;;4935524;29;20027;-67
2022/04/23 03:50:40;;;;;;;29.65;18.40;;;12.50;99.90;;;;;;4935485;29;20039;-68
2022/04/23 03:53:06;;;;;;;26.38;18.27;;;12.50;99.90;;;;;;4918369;29;20031;-67
2022/04/23 03:55:32;;;;;;;35.70;20.30;;;12.50;99.90;;;;;;4935486;29;20024;-67
2022/04/23 03:57:58;;;;;;;35.72;18.75;;;12.50;99.90;;;;;;4918204;29;20047;-67
2022/04/23 04:00:24;;;;;;;29.25;18.65;;;12.60;99.90;;;;;;4935390;29;20024;-67
2022/04/23 04:02:50;;;;;;;28.23;17.65;;;12.60;99.90;;;;;;4935344;29;20072;-67
2022/04/23 04:05:16;;;;;;;28.63;17.33;;;12.60;99.90;;;;;;4935326;29;20157;-68
2022/04/23 04:07:44;;;;;;;28.88;17.15;;;12.70;99.90;;;;;;4935340;29;20030;-68
2022/04/23 04:10:12;;;;;;;30.98;18.33;;;12.60;99.90;;;;;;4935328;29;20473;-68
2022/04/23 04:12:38;;;;;;;31.10;21.10;;;12.60;99.90;;;;;;4935213;29;20024;-68
2022/04/23 04:15:08;;;;;;;28.00;17.75;;;12.60;99.90;;;;;;4918169;29;20114;-68
2022/04/23 04:17:35;;;;;;;26.38;17.75;;;12.60;99.90;;;;;;4918548;29;20063;-68
2022/04/23 04:20:02;;;;;;;32.38;17.95;;;12.70;99.90;;;;;;4921547;29;20829;-69
2022/04/23 04:22:29;;;;;;;30.40;18.38;;;12.70;99.90;;;;;;4938620;29;20036;-69
2022/04/23 04:24:55;;;;;;;25.15;16.83;;;12.70;99.90;;;;;;4938870;29;20106;-68
2022/04/23 04:27:21;;;;;;;27.88;18.85;;;12.70;99.90;;;;;;4938599;29;20118;-69
2022/04/23 04:29:47;;;;;;;29.23;18.08;;;12.70;99.90;;;;;;4938511;29;20024;-69
2022/04/23 04:32:13;;;;;;;25.33;17.33;;;12.80;99.90;;;;;;4937953;29;20063;-68
2022/04/23 04:34:39;;;;;;;24.63;16.08;;;12.80;99.90;;;;;;4938376;29;20034;-69
2022/04/23 04:37:09;;;;;;;26.85;16.27;;;12.90;99.90;;;;;;4938357;29;20154;-69
2022/04/23 04:39:36;;;;;;;23.05;13.48;;;12.90;99.90;;;;;;4938207;29;20407;-69
2022/04/23 04:42:03;;;;;;;22.25;12.68;;;12.80;99.90;;;;;;4938573;29;20035;-69
2022/04/23 04:44:29;;;;;;;22.23;14.52;;;12.90;99.90;;;;;;4921048;29;20031;-69
2022/04/23 04:46:55;;;;;;;19.08;13.02;;;13.00;99.90;;;;;;4937996;29;20032;-68
2022/04/23 04:49:22;;;;;;;23.35;14.30;;;13.10;99.90;;;;;;4938166;29;20059;-69
2022/04/23 04:51:49;;;;;;;22.65;16.08;;;13.20;99.90;;;;;;4937815;29;20473;-69
2022/04/23 04:54:17;;;;;;;21.90;14.52;;;13.20;99.90;;;;;;4938064;29;20062;-69
2022/04/23 04:56:44;;;;;;;28.63;19.35;;;13.20;99.90;;;;;;4938031;29;20035;-69
2022/04/23 04:59:10;;;;;;;31.65;23.10;;;13.20;99.90;;;;;;4920788;29;20043;-69
2022/04/23 05:01:36;;;;;;;35.05;22.80;;;13.20;99.90;;;;;;4937900;29;20031;-69
2022/04/23 05:04:02;;;;;;;33.63;22.85;;;13.20;99.90;;;;;;4920985;29;20050;-68
2022/04/23 05:06:28;;;;;;;34.33;23.40;;;13.20;99.90;;;;;;4920732;29;20476;-69
2022/04/23 05:08:54;;;;;;;39.00;23.02;;;13.10;99.90;;;;;;4937775;29;20476;-69
2022/04/23 05:11:20;;;;;;;36.60;23.90;;;13.10;99.90;;;;;;4937735;29;20067;-69
2022/04/23 05:13:46;;;;;;;27.92;18.23;;;13.10;99.90;;;;;;4937664;29;20035;-70
2022/04/23 05:16:11;;;;;;;23.27;15.35;;;13.10;99.90;;;;;;4937651;29;20031;-70
2022/04/23 05:18:37;;;;;;;21.35;14.02;;;13.10;99.90;;;;;;4937599;29;20035;-70
2022/04/23 05:21:04;;;;;;;27.50;15.13;;;13.20;99.90;;;;;;4937546;29;20023;-69
2022/04/23 05:23:30;;;;;;;25.42;16.23;;;13.40;99.90;;;;;;4920393;29;20465;-69
2022/04/23 05:25:57;;;;;;;24.00;15.48;;;13.50;99.90;;;;;;4937465;29;20122;-70
2022/04/23 05:28:23;;;;;;;23.20;15.02;;;13.50;99.90;;;;;;4937088;29;20059;-69
2022/04/23 05:30:49;;;;;;;24.17;15.82;;;13.50;99.90;;;;;;4937240;29;20499;-70
2022/04/23 05:33:15;;;;;;;21.23;12.93;;;13.50;99.90;;;;;;4937431;29;20058;-69
2022/04/23 05:35:40;;;;;;;21.20;13.82;;;13.50;99.90;;;;;;4920126;29;20035;-70
2022/04/23 05:38:06;;;;;;;26.75;16.27;;;13.40;99.90;;;;;;4936994;29;20031;-69
2022/04/23 05:40:32;;;;;;;35.70;20.05;;;13.40;99.90;;;;;;4919990;29;20032;-69
2022/04/23 05:42:58;;;;;;;35.10;20.50;;;13.40;99.90;;;;;;4920023;29;20071;-69
2022/04/23 05:45:25;;;;;;;32.60;18.80;;;13.50;99.90;;;;;;4919980;29;20027;-68
2022/04/23 05:47:51;;;;;;;27.80;15.25;;;13.50;99.90;;;;;;4937064;29;20032;-67
2022/04/23 05:50:17;;;;;;;21.80;13.82;;;13.60;99.90;;;;;;4937004;29;20038;-68
2022/04/23 05:52:43;;;;;;;25.25;15.18;;;13.70;99.90;;;;;;4936977;29;20028;-68
2022/04/23 05:55:10;;;;;;;31.10;16.02;;;13.80;99.90;;;;;;4936913;29;20049;-67
2022/04/23 05:57:36;;;;;;;23.45;13.68;;;13.90;99.90;;;;;;4919706;29;20389;-68
2022/04/23 06:00:04;;;;;;;22.35;12.93;;;13.90;99.90;;;;;;4936829;29;20074;-66
2022/04/23 06:02:31;;;;;;;27.67;16.35;;;14.00;99.90;;;;;;4936781;29;20052;-68
2022/04/23 06:04:58;;;;;;;21.20;14.80;;;13.90;99.90;;;;;;4936732;29;20156;-67
2022/04/23 06:07:24;;;;;;;27.17;16.73;;;13.90;99.90;;;;;;4936513;29;20115;-67
2022/04/23 06:09:50;;;;;;;29.15;18.50;;;13.90;99.90;;;;;;4936637;29;20107;-67
2022/04/23 06:12:16;;;;;;;32.35;20.52;;;13.90;99.90;;;;;;4936645;29;20114;-66
2022/04/23 06:14:41;;;;;;;30.50;17.95;;;14.00;99.90;;;;;;4936298;29;20429;-68
2022/04/23 06:17:10;;;;;;;23.20;14.35;;;14.20;99.90;;;;;;4936250;29;20532;-68
2022/04/23 06:19:37;;;;;;;32.83;19.98;;;14.40;99.90;;;;;;4936495;29;20035;-68
2022/04/23 06:22:04;;;;;;;20.02;11.98;;;14.60;99.90;;;;;;4936410;29;20055;-68
2022/04/23 06:24:30;;;;;;;19.30;10.73;;;14.80;99.90;;;;;;4936501;29;20115;-68
2022/04/23 06:26:56;;;;;;;16.05;8.93;;;14.90;99.90;;;;;;4936419;29;20063;-68
2022/04/23 06:29:21;;;;;;;16.08;9.82;;;14.80;99.90;;;;;;4936337;29;20035;-68
2022/04/23 06:31:47;;;;;;;12.00;8.88;;;14.80;99.90;;;;;;4935858;29;20054;-69
2022/04/23 06:34:14;;;;;;;12.88;8.73;;;14.70;99.90;;;;;;4936250;29;20114;-69
2022/04/23 06:36:40;;;;;;;12.25;7.03;;;14.60;99.90;;;;;;4936088;29;20039;-70
2022/04/23 06:39:06;;;;;;;12.82;7.15;;;14.60;99.90;;;;;;4936198;29;20067;-69
2022/04/23 06:41:32;;;;;;;17.52;9.25;;;14.60;99.90;;;;;;4918546;29;20387;-70
2022/04/23 06:43:58;;;;;;;12.65;7.75;;;14.70;99.90;;;;;;4936136;29;20036;-69
2022/04/23 06:46:24;;;;;;;16.77;8.23;;;14.70;99.90;;;;;;4936043;29;20103;-70
2022/04/23 06:48:50;;;;;;;12.82;8.80;;;14.70;99.90;;;;;;4918772;29;20035;-69
2022/04/23 06:51:16;;;;;;;12.60;8.40;;;14.80;99.90;;;;;;4935941;29;20384;-69
2022/04/23 06:53:42;;;;;;;15.02;8.73;;;14.80;99.90;;;;;;4918879;29;20039;-67
2022/04/23 06:56:08;;;;;;;10.55;8.45;;;14.90;99.90;;;;;;4935944;29;20113;-70
2022/04/23 06:58:34;;;;;;;11.95;9.00;;;14.90;99.90;;;;;;4935778;29;20059;-69
2022/04/23 07:01:01;;;;;;;20.42;10.60;;;15.00;99.90;;;;;;4935877;29;20074;-70
2022/04/23 07:03:27;;;;;;;13.10;7.95;;;15.00;99.90;;;;;;4935551;29;20028;-70
2022/04/23 07:05:53;;;;;;;13.40;6.28;;;15.00;99.90;;;;;;4935834;29;20488;-70
2022/04/23 07:08:19;;;;;;;11.27;6.68;;;15.10;99.90;;;;;;4935852;29;20035;-70
2022/04/23 07:10:44;;;;;;;10.85;7.72;;;15.20;99.90;;;;;;4918717;29;20059;-70
2022/04/23 07:13:14;;;;;;;12.00;7.47;;;15.30;99.90;;;;;;4935794;29;20028;-68
2022/04/23 07:15:40;;;;;;;9.27;5.25;;;15.10;99.90;;;;;;4918599;29;20028;-68
2022/04/23 07:18:09;;;;;;;9.45;5.32;;;15.10;99.90;;;;;;4935738;29;20063;-69
2022/04/23 07:20:41;;;;;;;8.23;5.57;;;15.20;99.90;;;;;;4918519;29;20055;-71
2022/04/23 07:25:54;;;;;;;11.50;6.40;;;15.30;99.90;;;;;;4898704;29;20043;-66
2022/04/23 07:28:24;;;;;;;12.10;6.70;;;15.50;99.90;;;;;;4916200;29;20389;-66
2022/04/23 07:30:50;;;;;;;12.40;7.40;;;15.50;99.90;;;;;;4920110;29;20519;-65
2022/04/23 07:38:44;;;;;;;14.55;5.85;;;15.30;99.90;;;;;;4935038;29;20050;-67
2022/04/23 07:41:11;;;;;;;11.27;6.75;;;15.30;99.90;;;;;;4935927;29;20036;-69
2022/04/23 07:43:37;;;;;;;10.23;6.68;;;15.30;99.90;;;;;;4952286;29;20033;-70
2022/04/23 07:46:03;;;;;;;13.18;8.77;;;15.60;99.90;;;;;;4937368;29;20106;-70
2022/04/23 07:48:29;;;;;;;10.40;7.55;;;15.60;99.90;;;;;;4954371;29;20129;-69
2022/04/23 07:50:55;;;;;;;8.10;6.72;;;15.70;99.90;;;;;;4954572;28;20027;-68
2022/04/23 07:53:23;;;;;;;8.88;6.40;;;15.80;99.90;;;;;;4939134;29;20023;-69
2022/04/23 07:55:48;;;;;;;12.88;6.90;;;15.90;99.90;;;;;;4958138;28;20487;-68
2022/04/23 07:58:14;;;;;;;11.27;7.60;;;16.10;99.90;;;;;;4954295;29;20035;-74
2022/04/23 08:00:43;;;;;;;15.73;7.53;;;16.30;99.90;;;;;;4928354;29;20039;-72
2022/04/23 08:03:09;;;;;;;13.13;8.52;;;16.30;99.90;;;;;;4932217;29;20039;-69
2022/04/23 08:05:35;;;;;;;15.38;6.13;;;16.50;99.90;;;;;;4947720;29;20057;-66
2022/04/23 08:08:02;;;;;;;8.75;5.70;;;16.70;99.90;;;;;;4943405;29;20151;-65
2022/04/23 08:10:28;;;;;;;9.77;6.95;;;16.60;99.90;;;;;;4938776;29;20035;-65
2022/04/23 08:12:56;;;;;;;12.95;5.50;;;16.70;99.90;;;;;;4938442;29;20028;-67
2022/04/23 08:15:23;;;;;;;8.80;5.88;;;16.50;99.90;;;;;;4940508;29;20043;-66
2022/04/23 08:17:49;;;;;;;8.63;6.32;;;16.80;99.90;;;;;;4937398;29;20481;-66
2022/04/23 08:20:15;;;;;;;9.90;6.00;;;16.90;99.90;;;;;;4938229;29;20027;-65
2022/04/23 08:22:41;;;;;;;17.23;11.63;;;16.70;99.90;;;;;;4938540;29;20035;-65
2022/04/23 08:25:07;;;;;;;10.93;7.38;;;16.60;99.90;;;;;;4938468;29;20031;-67
2022/04/23 08:27:52;;;;;;;11.43;7.10;;;17.00;99.90;;;;;;4938341;29;20477;-68
2022/04/23 08:30:34;;;;;;;9.68;6.10;;;17.10;99.90;;;;;;4938026;29;20484;-68
2022/04/23 08:33:05;;;;;;;6.47;5.65;;;17.40;99.90;;;;;;4921187;29;20054;-65
2022/04/23 08:35:32;;;;;;;7.10;5.32;;;17.50;99.90;;;;;;4938187;29;20024;-67
2022/04/23 08:37:59;;;;;;;9.50;5.65;;;17.60;99.90;;;;;;4938257;29;20104;-67
2022/04/23 08:40:26;;;;;;;7.20;5.65;;;17.70;99.90;;;;;;4938193;29;20034;-69
2022/04/23 08:42:52;;;;;;;9.90;6.88;;;17.50;99.90;;;;;;4938189;29;20032;-68
2022/04/23 08:45:18;;;;;;;9.38;6.28;;;17.70;99.90;;;;;;4938182;29;20035;-71
2022/04/23 08:47:45;;;;;;;6.97;6.15;;;17.60;99.90;;;;;;4920997;29;20036;-68
2022/04/23 08:50:11;;;;;;;10.85;5.93;;;17.70;99.90;;;;;;4937708;29;20495;-66
2022/04/23 08:52:41;;;;;;;9.45;6.32;;;17.90;99.90;;;;;;4937856;29;20031;-69
2022/04/23 08:55:08;;;;;;;9.38;5.95;;;18.20;99.90;;;;;;4920783;29;20425;-65
2022/04/23 08:57:35;;;;;;;12.32;7.32;;;18.30;99.90;;;;;;4920632;29;20123;-66
2022/04/23 09:00:03;;;;;;;7.68;4.78;;;18.50;99.90;;;;;;4937846;29;20106;-67
2022/04/23 09:02:33;;;;;;;9.95;6.00;;;18.40;99.90;;;;;;4937838;29;20055;-66
2022/04/23 09:04:58;;;;;;;12.10;5.40;;;18.30;99.90;;;;;;4937375;29;20032;-67
2022/04/23 09:07:26;;;;;;;8.30;4.90;;;18.70;99.90;;;;;;4937567;29;20031;-66
2022/04/23 09:09:57;;;;;;;6.85;5.43;;;18.90;99.90;;;;;;4937751;29;20031;-65
2022/04/23 09:12:26;;;;;;;8.73;5.90;;;18.70;99.90;;;;;;4937783;29;20034;-69
2022/04/23 09:23:44;;;;;;;6.63;5.53;;;17.90;99.90;;;;;;4860129;29;20907;-68
2022/04/23 09:26:17;;;;;;;9.25;5.22;;;18.90;99.90;;;;;;4859943;29;20070;-69
2022/04/23 09:28:48;;;;;;;8.00;5.53;;;19.00;99.90;;;;;;4859126;29;20098;-70
2022/04/23 09:31:17;;;;;;;11.15;6.63;;;19.10;99.90;;;;;;4859536;29;20500;-67
2022/04/23 09:33:45;;;;;;;8.70;6.05;;;19.30;99.90;;;;;;4844029;29;20109;-68
2022/04/23 09:36:12;;;;;;;10.23;6.30;;;19.60;99.90;;;;;;4859772;29;20037;-70
2022/04/23 09:38:41;;;;;;;15.65;8.80;;;19.80;99.90;;;;;;4859681;29;20140;-69
2022/04/23 09:41:17;;;;;;;14.27;8.85;;;20.20;99.90;;;;;;4859613;29;20572;-69
2022/04/23 09:43:45;;;;;;;17.23;8.65;;;19.80;99.90;;;;;;4859533;29;20045;-70
2022/04/23 09:46:11;;;;;;;11.13;8.40;;;19.40;99.90;;;;;;4859448;29;20447;-69
2022/04/23 09:48:43;;;;;;;11.50;7.05;;;18.90;99.90;;;;;;4859494;29;20502;-70
2022/04/23 09:51:22;;;;;;;13.73;7.15;;;19.40;99.90;;;;;;4859351;29;20041;-70
2022/04/23 09:53:50;;;;;;;8.43;6.00;;;20.00;99.90;;;;;;4910175;29;20042;-70
2022/04/23 09:56:17;;;;;;;7.88;5.65;;;20.50;99.90;;;;;;4936788;29;20028;-69
2022/04/23 09:58:43;;;;;;;9.35;5.78;;;19.80;99.90;;;;;;4936835;29;20028;-69
2022/04/23 10:01:09;;;;;;;9.73;7.13;;;20.00;99.90;;;;;;4936762;29;20465;-68
2022/04/23 10:03:35;;;;;;;10.55;6.00;;;20.30;99.90;;;;;;4936557;29;20389;-65
2022/04/23 10:06:06;;;;;;;11.02;5.07;;;20.30;99.90;;;;;;4936629;29;20028;-64
2022/04/23 10:08:35;;;;;;;6.38;4.70;;;20.10;99.90;;;;;;4935917;29;20027;-65
2022/04/23 10:11:09;;;;;;;7.20;3.53;;;20.30;99.90;;;;;;4918604;29;20040;-64
2022/04/23 10:13:39;;;;;;;7.57;4.25;;;20.40;99.90;;;;;;4934136;29;20397;-64
2022/04/23 10:16:07;;;;;;;6.05;4.07;;;20.50;99.90;;;;;;4935308;29;20270;-66
2022/04/23 10:18:38;;;;;;;7.82;5.00;;;20.80;99.90;;;;;;4935947;29;20048;-64
2022/04/23 10:21:08;;;;;;;8.15;4.47;;;20.60;99.90;;;;;;4936326;29;20027;-64
2022/04/23 10:23:58;;;;;;;4.20;3.47;;;20.70;99.60;;;;;;4935804;29;20027;-66
2022/04/23 10:26:37;;;;;;;9.77;4.32;;;20.50;99.90;;;;;;4935529;29;20028;-63
2022/04/23 10:29:11;;;;;;;7.63;4.82;;;20.80;98.30;;;;;;4935561;29;20044;-64
2022/04/23 10:31:37;;;;;;;5.93;4.75;;;20.50;99.40;;;;;;4935578;29;20063;-63
2022/04/23 10:34:03;;;;;;;7.93;5.28;;;21.60;99.90;;;;;;4935858;29;20031;-65
2022/04/23 10:36:29;;;;;;;8.68;5.80;;;22.00;98.80;;;;;;4935970;29;20075;-66
2022/04/23 10:39:22;;;;;;;9.38;5.35;;;21.30;98.40;;;;;;4918839;29;20397;-67
2022/04/23 10:41:50;;;;;;;8.68;5.30;;;21.60;99.00;;;;;;4935901;29;20030;-65
2022/04/23 10:44:22;;;;;;;6.45;4.35;;;22.50;98.30;;;;;;4924139;29;20071;-64
2022/04/23 10:46:49;;;;;;;9.32;5.38;;;23.80;94.20;;;;;;4917006;29;20043;-72
2022/04/23 10:49:22;;;;;;;5.85;4.32;;;24.00;93.90;;;;;;4898684;29;20044;-66
2022/04/23 10:51:53;;;;;;;7.70;3.72;;;24.40;87.60;;;;;;4899573;29;20032;-67
2022/04/23 10:54:21;;;;;;;7.47;4.27;;;24.70;90.10;;;;;;4899545;29;20040;-67
2022/04/23 10:56:53;;;;;;;8.07;6.85;;;24.40;90.10;;;;;;4916813;29;20252;-65
2022/04/23 10:59:53;;;;;;;7.63;5.28;;;23.10;90.80;;;;;;4916309;29;20055;-65
2022/04/23 11:02:19;;;;;;;10.82;5.88;;;23.30;90.50;;;;;;4821451;29;20043;-65
2022/04/23 11:13:49;;;;;;;5.50;4.40;;;27.60;75.40;;;;;;4803515;29;20050;-65
2022/04/23 11:16:17;;;;;;;7.60;5.28;;;27.50;75.90;;;;;;4803403;29;20035;-66
2022/04/23 11:18:46;;;;;;;5.65;4.18;;;28.70;70.60;;;;;;4803196;29;20424;-65
2022/04/23 11:21:18;;;;;;;12.38;4.75;;;;;;;;;;4788324;29;20421;-66
2022/04/23 11:23:45;;;;;;;12.35;4.57;;;;;;;;;;4803204;29;20031;-66
2022/04/23 11:26:22;;;;;;;11.02;4.95;;;30.70;65.70;;;;;;4803378;29;20409;-66
2022/04/23 11:28:57;;;;;;;8.75;4.63;;;;;;;;;;4807008;29;20045;-65
2022/04/23 11:31:24;;;;;;;9.85;3.83;;;27.20;69.40;;;;;;4814589;29;20055;-65
2022/04/23 11:33:54;;;;;;;8.75;4.72;;;27.40;69.70;;;;;;4809799;29;20038;-66
2022/04/23 11:36:24;;;;;;;5.78;3.63;;;;;;;;;;4824828;29;20034;-66
2022/04/23 11:38:50;;;;;;;5.28;3.30;;;;;;;;;;4895111;29;20084;-68
2022/04/23 11:41:49;;;;;;;4.68;2.88;;;28.40;70.60;;;;;;4919935;29;20471;-68
2022/04/23 11:44:16;;;;;;;6.43;3.25;;;;;;;;;;4920148;29;20577;-65
2022/04/23 11:46:50;;;;;;;3.88;3.05;;;26.70;67.70;;;;;;4920309;29;20035;-66
2022/04/23 11:49:32;;;;;;;4.53;2.42;;;25.30;72.30;;;;;;4919982;29;20119;-66
2022/04/23 11:52:05;;;;;;;8.23;4.07;;;25.80;71.20;;;;;;4918662;29;20028;-65
2022/04/23 11:54:51;;;;;;;5.78;3.95;;;25.10;74.60;;;;;;4919890;29;20036;-65
2022/04/23 11:57:19;;;;;;;4.55;3.67;;;24.50;76.20;;;;;;4919676;29;20167;-67
2022/04/23 11:59:50;;;;;;;11.35;4.20;;;25.50;74.70;;;;;;4919817;29;20028;-65
2022/04/23 12:02:21;;;;;;;18.92;9.40;;;27.10;73.60;;;;;;4919994;29;20481;-66
2022/04/23 12:04:48;;;;;;;16.80;8.30;;;29.00;70.00;;;;;;4919989;29;20126;-66
2022/04/23 12:07:15;;;;;;;25.33;11.82;;;28.50;69.30;;;;;;4903807;29;20043;-65
2022/04/23 12:09:51;;;;;;;16.65;10.23;;;28.20;69.90;;;;;;4941173;29;20186;-66
2022/04/23 12:12:21;;;;;;;25.73;14.65;;;26.90;70.00;;;;;;4938848;29;20114;-65
2022/04/23 12:14:55;;;;;;;26.23;14.27;;;26.90;72.00;;;;;;4921473;29;20123;-65
2022/04/23 12:17:29;;;;;;;13.70;8.35;;;26.40;71.50;;;;;;4938591;29;20062;-65
2022/04/23 12:19:57;;;;;;;14.88;8.82;;;25.80;72.60;;;;;;4938587;29;20036;-65
2022/04/23 12:22:28;;;;;;;14.93;9.98;;;25.20;74.50;;;;;;4938792;29;20058;-65
2022/04/23 12:25:16;;;;;;;8.18;4.10;;;24.60;73.90;;;;;;4921312;29;20028;-65
2022/04/23 12:28:00;;;;;;;10.25;5.25;;;24.40;76.10;;;;;;4938424;29;20047;-65
2022/04/23 12:41:57;;;;;;;5.32;3.42;;;26.10;70.70;;;;;;4938153;29;20124;-63
2022/04/23 12:44:25;;;;;;;6.35;5.47;;;25.30;71.40;;;;;;4938145;29;20052;-64
2022/04/23 12:46:59;;;;;;;4.32;3.22;;;24.40;73.30;;;;;;4921060;29;20072;-63
2022/04/23 12:49:46;;;;;;;7.65;4.07;;;24.00;75.30;;;;;;4938001;29;20075;-64
2022/04/23 12:52:15;;;;;;;8.15;3.55;;;23.50;77.30;;;;;;4924924;29;20500;-64
2022/04/23 12:54:40;;;;;;;4.97;3.40;;;23.30;78.60;;;;;;4937948;29;20377;-63
2022/04/23 12:57:16;;;;;;;7.47;3.28;;;23.10;77.40;;;;;;4920774;29;20027;-63
2022/04/23 12:59:41;;;;;;;6.82;3.78;;;23.20;81.40;;;;;;4937797;29;20138;-64
2022/04/23 13:02:07;;;;;;;6.95;3.60;;;23.50;78.90;;;;;;4937923;29;20469;-64
2022/04/23 13:04:33;;;;;;;6.15;2.97;;;23.80;78.80;;;;;;4937753;29;20034;-63
2022/04/23 13:09:43;;;;;;;9.35;4.05;;;24.00;74.50;;;;;;4937475;29;20042;-63
2022/04/23 13:12:09;;;;;;;5.22;3.65;;;;;;;;;;4937708;29;20036;-64
2022/04/23 13:14:35;;;;;;;5.53;3.53;;;;;;;;;;4937981;29;20032;-64
2022/04/23 13:17:01;;;;;;;9.98;3.70;;;;;;;;;;4937627;29;20036;-64
2022/04/23 13:19:28;;;;;;;4.95;2.90;;;;;;;;;;4937385;29;20043;-64
2022/04/23 13:21:53;;;;;;;5.07;2.90;;;31.40;61.00;;;;;;4937561;29;20023;-64
2022/04/23 13:24:19;;;;;;;5.30;3.40;;;32.80;59.60;;;;;;4937159;29;20046;-64
2022/04/23 13:26:45;;;;;;;4.40;3.13;;;33.60;57.70;;;;;;4937489;29;20038;-65